Terminal Aerodrome Forecast
Issued by NWS

Home | Current Version | Previous Version | Text Only | Print | Product List | Glossary On
Versions: 1 2 3 4 5 6 7 8 9 10 11 12 13 14 15 16 17 18 19 20 21 22
000
FTUS41 KBGM 011300 AAA
TAFELM
TAF AMD
KELM 011344Z 0114/0212 00000KT 1SM BR BKN002
      TEMPO 0114/0115 4SM BR SCT002 BKN015
     FM011500 VRB03KT 5SM BR SCT005 BKN025
     FM011600 24005KT P6SM SCT025 BKN045
     FM020000 VRB03KT P6SM SCT045 BKN150
      TEMPO 0208/0212 1SM BR BKN002=

USA.gov is the U.S. government's official web portal to all federal, state and local government web resources and services.